Leonora, Australia
Current Conditions -  °F | °C
As of 2:30 AM on Wednesday 22 Oct 2014 (Local Time) from YPKG Reporting Station
Clear Clear  
Wind Chill: 63°   Ceiling: Unl
Heat Index: 63°   Visibility: NA
Dew Point: 54°   Wind: 15mph
Humidity: 72%   Direction: 100°E
Pressure: 30.12"   Gusts: NA
Location:  28.88°S, 121.33°E
Report Text: YPKG 211830Z AUTO 10013KT //// // NCD 17/12 Q1020
Loading
Personal Weather Stations






























Interactive Weather Map
Tropical Storm Tracking
New forecast layout! Learn more

10-Day Weather Forecast

Advertisements
Track Severe Weather on mobile